Time;durP1;ratioP1;P1;durP2;ratioP2;P2;SDS_P1;SDS_P2;PMS_P1;PMS_P2;Temp;Humidity;BMP_temperature;BMP_pressure;BME280_temperature;BME280_humidity;BME280_pressure;Samples;Min_cycle;Max_cycle;Signal;HPM_P1;HPM_P2
2021/05/24 00:01:50;;;;;;;2.10;0.70;;;14.30;62.50;;;;;;5059691;28;20477;-82
2021/05/24 00:04:15;;;;;;;3.45;0.75;;;14.30;62.70;;;;;;5073532;28;20040;-82
2021/05/24 00:06:41;;;;;;;4.78;0.55;;;14.30;62.80;;;;;;5071194;28;20029;-83
2021/05/24 00:09:07;;;;;;;3.00;0.65;;;14.30;62.80;;;;;;5068096;28;20354;-83
2021/05/24 00:11:33;;;;;;;2.28;0.70;;;14.30;63.00;;;;;;5052880;28;20029;-82
2021/05/24 00:13:59;;;;;;;2.45;0.70;;;14.30;63.90;;;;;;5072733;28;20028;-83
2021/05/24 00:16:25;;;;;;;1.85;0.60;;;14.20;63.10;;;;;;5068827;28;20041;-83
2021/05/24 00:18:51;;;;;;;3.60;0.90;;;14.20;63.10;;;;;;5072128;28;20030;-83
2021/05/24 00:21:21;;;;;;;2.13;0.60;;;14.20;63.40;;;;;;5076098;28;20016;-82
2021/05/24 00:23:48;;;;;;;4.45;0.63;;;14.20;63.60;;;;;;5071932;28;20025;-83
2021/05/24 00:26:14;;;;;;;1.92;0.70;;;14.10;63.70;;;;;;5090333;28;20536;-83
2021/05/24 00:28:41;;;;;;;4.32;0.90;;;14.20;64.00;;;;;;5056811;28;20485;-82
2021/05/24 00:31:07;;;;;;;3.13;0.60;;;14.10;64.10;;;;;;5066435;28;20100;-82
2021/05/24 00:33:33;;;;;;;5.05;0.60;;;14.10;64.10;;;;;;5055443;28;20035;-83
2021/05/24 00:35:58;;;;;;;3.40;0.50;;;14.10;64.20;;;;;;5073031;28;20024;-83
2021/05/24 00:38:24;;;;;;;1.88;0.60;;;14.10;64.60;;;;;;5057259;28;20028;-82
2021/05/24 00:40:50;;;;;;;4.38;0.90;;;14.10;64.00;;;;;;5066942;28;20133;-83
2021/05/24 00:43:16;;;;;;;3.65;0.60;;;14.10;64.10;;;;;;5054976;28;20029;-83
2021/05/24 00:45:43;;;;;;;3.20;0.70;;;14.10;64.10;;;;;;5055016;28;21774;-83
2021/05/24 00:48:10;;;;;;;1.88;0.80;;;14.10;64.10;;;;;;5057043;28;20031;-83
2021/05/24 00:50:36;;;;;;;2.92;0.57;;;14.20;64.30;;;;;;5058623;28;20025;-83
2021/05/24 00:53:02;;;;;;;0.95;0.47;;;14.20;63.90;;;;;;5058045;28;20037;-83
2021/05/24 00:55:28;;;;;;;1.92;0.43;;;14.20;64.00;;;;;;5058408;28;20116;-83
2021/05/24 00:57:54;;;;;;;2.30;0.43;;;14.20;64.80;;;;;;5061487;28;20029;-83
2021/05/24 01:00:42;;;;;;;1.52;0.40;;;14.20;63.90;;;;;;5061060;28;20653;-83
2021/05/24 01:03:10;;;;;;;1.60;0.30;;;14.30;64.00;;;;;;5052750;28;20037;-82
2021/05/24 01:05:37;;;;;;;1.48;0.40;;;14.30;64.20;;;;;;5070779;28;20024;-83
2021/05/24 01:08:04;;;;;;;4.20;0.40;;;14.30;64.40;;;;;;5070202;28;20025;-83
2021/05/24 01:10:29;;;;;;;1.42;0.40;;;14.30;64.30;;;;;;5052853;28;20032;-83
2021/05/24 01:12:58;;;;;;;2.25;0.30;;;14.30;64.30;;;;;;5096946;28;20029;-78
2021/05/24 01:15:23;;;;;;;1.10;0.45;;;14.30;64.30;;;;;;5058893;28;20049;-78
2021/05/24 01:17:49;;;;;;;2.97;0.60;;;14.20;64.20;;;;;;5062920;28;20085;-78
2021/05/24 01:20:15;;;;;;;2.00;0.50;;;14.20;64.60;;;;;;5073794;28;20051;-78
2021/05/24 01:22:48;;;;;;;2.25;0.70;;;14.20;64.70;;;;;;5062931;28;20734;-79
2021/05/24 01:25:14;;;;;;;3.25;0.60;;;14.20;64.80;;;;;;5055364;28;20370;-78
2021/05/24 01:27:40;;;;;;;3.90;0.60;;;14.20;64.70;;;;;;5057508;28;20028;-79
2021/05/24 01:30:06;;;;;;;1.13;0.50;;;14.20;64.60;;;;;;5056156;28;20048;-78
2021/05/24 01:32:32;;;;;;;2.38;0.43;;;14.30;64.90;;;;;;5070263;28;20021;-78
2021/05/24 01:34:58;;;;;;;2.47;0.40;;;14.30;64.90;;;;;;5072541;28;20477;-79
2021/05/24 01:37:23;;;;;;;2.22;0.60;;;14.30;64.90;;;;;;5070289;28;20032;-79
2021/05/24 01:39:49;;;;;;;4.72;0.70;;;14.20;64.70;;;;;;5061472;28;20028;-78
2021/05/24 01:42:14;;;;;;;2.90;0.60;;;14.30;64.90;;;;;;5065556;28;20440;-78
2021/05/24 01:44:41;;;;;;;4.45;0.50;;;14.20;65.10;;;;;;5061611;28;20427;-78
2021/05/24 01:47:07;;;;;;;1.67;0.52;;;14.20;64.80;;;;;;5057269;28;20048;-79
2021/05/24 01:49:36;;;;;;;2.67;0.50;;;14.20;65.00;;;;;;5060386;28;20031;-78
2021/05/24 01:52:05;;;;;;;3.88;0.80;;;14.20;65.00;;;;;;5064724;28;20021;-78
2021/05/24 01:54:30;;;;;;;1.40;0.52;;;14.20;65.10;;;;;;5064161;28;20119;-78
2021/05/24 01:56:56;;;;;;;3.28;0.63;;;14.20;65.30;;;;;;5079807;28;20119;-78
2021/05/24 01:59:22;;;;;;;2.15;0.52;;;14.20;65.30;;;;;;5065676;28;20491;-79
2021/05/24 02:01:47;;;;;;;2.10;0.40;;;14.20;65.50;;;;;;5067971;28;20032;-79
2021/05/24 02:04:15;;;;;;;3.35;0.50;;;14.20;65.80;;;;;;5075633;28;20464;-79
2021/05/24 02:06:41;;;;;;;3.10;0.60;;;14.20;65.90;;;;;;5071325;28;20040;-79
2021/05/24 02:09:07;;;;;;;2.42;0.40;;;14.20;65.80;;;;;;5079488;28;20280;-78
2021/05/24 02:11:33;;;;;;;1.77;0.50;;;14.20;65.50;;;;;;5090199;28;20103;-79
2021/05/24 02:13:58;;;;;;;2.55;0.55;;;14.20;65.50;;;;;;5067694;28;20070;-78
2021/05/24 02:16:42;;;;;;;4.18;0.70;;;14.20;65.50;;;;;;5057986;28;20170;-79
2021/05/24 02:19:13;;;;;;;1.73;0.60;;;14.20;65.70;;;;;;5072171;28;20040;-78
2021/05/24 02:21:39;;;;;;;3.00;0.70;;;14.20;65.30;;;;;;5065404;28;20033;-78
2021/05/24 02:24:06;;;;;;;2.60;0.40;;;14.20;65.60;;;;;;5056288;28;20024;-78
2021/05/24 02:26:33;;;;;;;1.45;0.57;;;14.20;65.50;;;;;;5060432;28;20116;-79
2021/05/24 02:28:59;;;;;;;1.73;0.70;;;14.20;65.70;;;;;;5064937;28;20017;-78
2021/05/24 02:31:25;;;;;;;2.05;0.32;;;14.20;65.50;;;;;;5049621;28;20033;-78
2021/05/24 02:33:50;;;;;;;2.17;0.60;;;14.20;65.80;;;;;;5074938;28;20059;-78
2021/05/24 02:36:17;;;;;;;2.13;0.70;;;14.20;66.00;;;;;;5074201;28;20033;-79
2021/05/24 02:38:43;;;;;;;2.10;0.65;;;14.20;65.90;;;;;;5051752;28;20382;-79
2021/05/24 02:41:09;;;;;;;3.10;0.88;;;14.20;65.60;;;;;;5059672;28;20040;-78
2021/05/24 02:43:35;;;;;;;2.17;0.50;;;14.20;65.50;;;;;;5092890;27;20040;-78
2021/05/24 02:46:00;;;;;;;2.33;0.43;;;14.20;65.70;;;;;;5066580;28;20040;-79
2021/05/24 02:48:26;;;;;;;2.03;0.50;;;14.20;66.20;;;;;;5061503;28;20470;-79
2021/05/24 02:50:52;;;;;;;4.93;0.57;;;14.20;66.10;;;;;;5086473;28;20115;-78
2021/05/24 02:53:17;;;;;;;2.85;0.55;;;14.10;66.00;;;;;;5068301;28;20056;-78
2021/05/24 02:55:43;;;;;;;1.83;0.40;;;14.20;66.10;;;;;;5064612;28;20039;-79
2021/05/24 02:58:09;;;;;;;3.25;0.60;;;14.10;66.10;;;;;;5078834;28;20086;-79
2021/05/24 03:00:35;;;;;;;2.03;0.70;;;14.10;66.20;;;;;;5058649;28;20033;-78
2021/05/24 03:03:00;;;;;;;2.33;0.60;;;14.10;66.20;;;;;;5068761;28;20032;-79
2021/05/24 03:05:26;;;;;;;4.10;0.57;;;14.10;66.10;;;;;;5081777;28;20425;-79
2021/05/24 03:07:53;;;;;;;2.63;0.65;;;14.10;66.20;;;;;;5069808;28;20025;-78
2021/05/24 03:10:21;;;;;;;2.22;0.50;;;14.10;66.20;;;;;;5063094;28;20516;-78
2021/05/24 03:12:47;;;;;;;3.90;0.68;;;14.10;66.10;;;;;;5095696;28;20496;-78
2021/05/24 03:15:15;;;;;;;1.83;0.43;;;14.10;66.30;;;;;;5063816;28;20028;-79
2021/05/24 03:17:41;;;;;;;3.13;0.35;;;14.10;66.60;;;;;;5068112;28;20020;-78
2021/05/24 03:20:09;;;;;;;3.60;0.52;;;14.10;66.50;;;;;;5061636;28;20029;-78
2021/05/24 03:22:35;;;;;;;2.30;0.52;;;14.10;66.50;;;;;;5062000;28;20424;-78
2021/05/24 03:25:02;;;;;;;3.65;0.40;;;14.10;66.20;;;;;;5061013;28;20036;-78
2021/05/24 03:27:28;;;;;;;2.80;0.65;;;14.10;66.20;;;;;;5059029;28;20039;-79
2021/05/24 03:29:54;;;;;;;2.25;0.73;;;14.10;66.30;;;;;;5062631;28;20112;-78
2021/05/24 03:32:20;;;;;;;3.22;0.60;;;14.10;66.40;;;;;;5090717;28;20127;-78
2021/05/24 03:34:45;;;;;;;2.22;0.55;;;14.10;66.60;;;;;;5082574;28;20032;-79
2021/05/24 03:37:11;;;;;;;6.43;0.70;;;14.20;66.40;;;;;;5076067;28;20036;-79
2021/05/24 03:39:37;;;;;;;2.55;0.40;;;14.20;66.50;;;;;;5078041;28;20038;-78
2021/05/24 03:42:03;;;;;;;2.03;0.70;;;14.20;66.40;;;;;;5064464;28;20036;-79
2021/05/24 03:44:28;;;;;;;1.60;0.40;;;14.20;66.40;;;;;;5059149;28;20052;-78
2021/05/24 03:46:54;;;;;;;2.60;0.47;;;14.20;66.70;;;;;;5055039;28;20056;-79
2021/05/24 03:49:20;;;;;;;3.65;0.63;;;14.20;66.70;;;;;;5063551;28;20028;-78
2021/05/24 03:51:45;;;;;;;1.60;0.65;;;14.20;66.70;;;;;;5060860;28;20469;-78
2021/05/24 03:54:11;;;;;;;0.60;0.35;;;14.20;66.70;;;;;;5064033;28;20029;-78
2021/05/24 03:56:37;;;;;;;3.95;0.90;;;14.20;66.60;;;;;;5054384;28;20085;-78
2021/05/24 03:59:03;;;;;;;2.88;0.60;;;14.20;66.60;;;;;;5046248;28;20028;-78
2021/05/24 04:01:29;;;;;;;2.45;0.45;;;14.20;66.50;;;;;;5063607;28;20483;-78
2021/05/24 04:03:55;;;;;;;3.80;0.60;;;14.30;66.60;;;;;;5074550;28;20412;-78
2021/05/24 04:06:24;;;;;;;2.55;0.63;;;14.20;66.40;;;;;;5074180;28;20032;-79
2021/05/24 04:08:50;;;;;;;;;;;14.30;66.40;;;;;;5053180;28;20034;-78
2021/05/24 04:11:15;;;;;;;2.42;0.45;;;14.30;66.20;;;;;;5097862;27;19908;-78
2021/05/24 04:13:46;;;;;;;0.98;0.40;;;14.30;66.40;;;;;;5064735;28;20029;-78
2021/05/24 04:16:12;;;;;;;5.22;0.70;;;14.30;67.20;;;;;;5058435;28;20048;-79
2021/05/24 04:18:42;;;;;;;5.63;0.68;;;14.40;67.20;;;;;;5096708;28;20029;-78
2021/05/24 04:21:07;;;;;;;1.70;0.50;;;14.40;66.50;;;;;;5059447;28;20039;-79
2021/05/24 04:23:33;;;;;;;2.08;0.63;;;14.40;66.50;;;;;;5064284;28;20426;-78
2021/05/24 04:25:59;;;;;;;2.78;0.52;;;14.40;66.40;;;;;;5058519;28;20493;-78
2021/05/24 04:28:24;;;;;;;4.63;0.98;;;14.50;66.20;;;;;;5067369;28;20375;-79
2021/05/24 04:30:50;;;;;;;1.88;0.60;;;14.50;66.20;;;;;;5077879;28;20020;-78
2021/05/24 04:33:16;;;;;;;2.33;0.80;;;14.50;66.10;;;;;;5069744;28;20477;-79
2021/05/24 04:35:41;;;;;;;2.72;0.60;;;14.60;65.80;;;;;;5065956;28;20044;-78
2021/05/24 04:38:07;;;;;;;3.90;0.88;;;14.50;65.60;;;;;;5065615;28;20025;-78
2021/05/24 04:40:33;;;;;;;2.78;0.73;;;14.60;65.50;;;;;;5067786;28;20063;-78
2021/05/24 04:42:59;;;;;;;1.83;0.70;;;14.60;65.40;;;;;;5059888;28;20088;-78
2021/05/24 04:45:25;;;;;;;2.53;0.60;;;14.60;65.40;;;;;;5062525;28;20043;-79
2021/05/24 04:47:51;;;;;;;3.42;0.60;;;14.60;65.40;;;;;;5065621;28;20029;-79
2021/05/24 04:50:17;;;;;;;2.22;0.60;;;14.60;65.40;;;;;;5065283;28;20078;-78
2021/05/24 04:52:43;;;;;;;4.05;0.77;;;14.60;65.50;;;;;;5065020;28;20077;-78
2021/05/24 04:55:11;;;;;;;2.60;0.52;;;14.60;65.50;;;;;;5063548;28;20506;-79
2021/05/24 04:57:36;;;;;;;1.40;0.50;;;14.60;65.30;;;;;;5079727;28;20167;-79
2021/05/24 05:00:05;;;;;;;5.43;0.70;;;14.60;65.50;;;;;;5074888;28;20103;-78
2021/05/24 05:02:31;;;;;;;;;;;14.60;65.60;;;;;;5058934;28;20171;-79
2021/05/24 05:04:56;;;;;;;2.05;0.60;;;14.60;65.80;;;;;;5054539;28;20401;-79
2021/05/24 05:07:22;;;;;;;3.58;0.63;;;14.50;66.50;;;;;;5054014;28;20065;-79
2021/05/24 05:09:48;;;;;;;6.03;1.17;;;14.50;66.10;;;;;;5067165;28;20485;-79
2021/05/24 05:12:13;;;;;;;3.47;0.70;;;14.50;66.00;;;;;;5062594;28;20035;-79
2021/05/24 05:14:39;;;;;;;4.93;0.82;;;14.50;65.80;;;;;;5062002;28;20037;-78
2021/05/24 05:17:05;;;;;;;4.30;0.75;;;14.60;66.00;;;;;;5059198;28;20499;-79
2021/05/24 05:19:31;;;;;;;2.58;0.55;;;14.50;66.90;;;;;;5051321;28;20124;-79
2021/05/24 05:21:56;;;;;;;1.17;0.45;;;14.50;66.20;;;;;;5064602;28;20026;-78
2021/05/24 05:24:22;;;;;;;3.00;0.50;;;14.60;66.40;;;;;;5083477;28;20413;-79
2021/05/24 05:26:47;;;;;;;2.83;0.77;;;14.60;66.20;;;;;;5056426;28;20121;-79
2021/05/24 05:29:13;;;;;;;2.05;0.80;;;14.60;66.20;;;;;;5065880;28;20029;-79
2021/05/24 05:31:39;;;;;;;1.83;0.60;;;14.60;66.40;;;;;;5052872;28;20465;-79
2021/05/24 05:34:05;;;;;;;1.52;0.50;;;14.60;66.40;;;;;;5076579;28;20370;-79
2021/05/24 05:36:32;;;;;;;2.75;0.57;;;14.60;66.50;;;;;;5094422;28;20112;-78
2021/05/24 05:38:57;;;;;;;4.28;0.70;;;14.60;66.90;;;;;;5069242;28;20028;-79
2021/05/24 05:41:23;;;;;;;1.77;0.40;;;14.50;67.00;;;;;;5066357;28;20039;-79
2021/05/24 05:43:49;;;;;;;2.67;0.50;;;14.50;67.30;;;;;;5047071;28;20523;-79
2021/05/24 05:46:14;;;;;;;3.42;0.70;;;14.50;67.40;;;;;;5056637;28;20558;-79
2021/05/24 05:48:40;;;;;;;5.45;0.60;;;14.50;67.10;;;;;;5078072;28;20044;-79
2021/05/24 05:51:06;;;;;;;2.90;0.50;;;14.50;67.10;;;;;;5066002;28;20515;-78
2021/05/24 05:53:32;;;;;;;3.67;0.50;;;14.50;67.60;;;;;;5065567;28;20051;-79
2021/05/24 05:55:58;;;;;;;2.95;0.60;;;14.50;67.40;;;;;;5065302;28;20507;-79
2021/05/24 05:58:24;;;;;;;3.13;0.60;;;14.50;67.40;;;;;;5051556;28;20025;-79
2021/05/24 06:00:50;;;;;;;2.53;0.70;;;14.50;67.20;;;;;;5067677;28;20035;-79
2021/05/24 06:03:16;;;;;;;2.85;0.73;;;14.50;67.00;;;;;;5052768;28;20365;-79
2021/05/24 06:05:41;;;;;;;1.77;0.45;;;14.50;67.20;;;;;;5080372;28;20039;-79
2021/05/24 06:08:07;;;;;;;4.43;0.70;;;14.60;67.20;;;;;;5072660;28;20033;-79
2021/05/24 06:10:33;;;;;;;4.63;0.85;;;14.60;67.20;;;;;;5040791;28;20033;-79
2021/05/24 06:13:00;;;;;;;1.95;0.50;;;14.60;67.30;;;;;;5050538;28;20115;-79
2021/05/24 06:15:26;;;;;;;1.95;0.70;;;14.60;67.10;;;;;;5063243;28;20029;-79
2021/05/24 06:17:51;;;;;;;2.92;0.73;;;14.70;66.80;;;;;;5061804;28;20112;-79
2021/05/24 06:20:17;;;;;;;3.70;0.82;;;14.70;66.50;;;;;;5069828;28;20060;-79
2021/05/24 06:22:43;;;;;;;1.35;0.60;;;14.70;66.60;;;;;;5059717;28;20029;-79
2021/05/24 06:25:10;;;;;;;4.07;0.68;;;14.80;66.40;;;;;;5059786;28;20028;-79
2021/05/24 06:27:37;;;;;;;3.03;0.68;;;14.80;66.50;;;;;;5065321;28;20035;-79
2021/05/24 06:30:08;;;;;;;2.25;0.52;;;14.80;66.20;;;;;;5065111;28;20025;-79
2021/05/24 06:32:34;;;;;;;2.15;0.77;;;14.90;65.00;;;;;;5051634;28;20042;-79
2021/05/24 06:35:00;;;;;;;1.85;0.57;;;14.90;64.60;;;;;;5071361;28;20460;-79
2021/05/24 06:37:26;;;;;;;2.67;0.73;;;15.00;64.40;;;;;;5074387;28;20032;-79
2021/05/24 06:39:52;;;;;;;2.15;0.30;;;15.00;64.30;;;;;;5051842;28;20848;-79
2021/05/24 06:42:18;;;;;;;1.23;0.43;;;15.00;64.80;;;;;;5053710;28;20040;-79
2021/05/24 06:44:44;;;;;;;3.65;0.55;;;15.00;64.20;;;;;;5066346;28;20041;-79
2021/05/24 06:47:09;;;;;;;3.80;0.73;;;15.00;64.30;;;;;;5058014;28;20525;-79
2021/05/24 06:49:35;;;;;;;2.33;0.50;;;15.10;64.20;;;;;;5062996;28;20115;-79
2021/05/24 06:52:05;;;;;;;3.10;0.63;;;15.10;63.70;;;;;;5077020;28;20396;-79
2021/05/24 06:54:31;;;;;;;3.78;0.47;;;15.10;63.50;;;;;;5066992;28;20056;-79
2021/05/24 06:56:57;;;;;;;2.50;0.70;;;15.10;63.80;;;;;;5062925;28;20027;-79
2021/05/24 06:59:23;;;;;;;2.80;0.68;;;15.10;63.80;;;;;;5061783;28;20029;-79
2021/05/24 07:01:48;;;;;;;3.28;0.57;;;15.10;63.50;;;;;;5068903;28;20529;-79
2021/05/24 07:04:14;;;;;;;3.35;0.47;;;15.10;63.60;;;;;;5073781;28;20037;-79
2021/05/24 07:06:39;;;;;;;2.38;0.47;;;15.10;63.40;;;;;;5082893;28;20036;-79
2021/05/24 07:09:06;;;;;;;3.17;0.70;;;15.20;62.90;;;;;;5061973;28;20036;-79
2021/05/24 07:11:31;;;;;;;2.20;0.50;;;15.20;62.60;;;;;;5062036;28;20078;-79
2021/05/24 07:13:58;;;;;;;1.08;0.40;;;15.30;63.10;;;;;;5062627;28;20041;-79
2021/05/24 07:16:23;;;;;;;2.05;0.60;;;15.30;62.70;;;;;;5057438;28;20035;-82
2021/05/24 07:18:49;;;;;;;2.30;0.63;;;15.40;62.70;;;;;;5070683;28;20028;-83
2021/05/24 07:21:14;;;;;;;5.03;0.68;;;15.40;62.20;;;;;;5059279;28;20099;-84
2021/05/24 07:23:40;;;;;;;2.38;0.73;;;15.50;62.10;;;;;;5067794;28;20111;-83
2021/05/24 07:26:06;;;;;;;3.35;0.50;;;15.60;62.10;;;;;;5059127;28;20029;-83
2021/05/24 07:28:31;;;;;;;3.08;0.50;;;15.70;61.70;;;;;;5074911;28;20481;-84
2021/05/24 07:30:57;;;;;;;3.15;0.57;;;15.70;61.60;;;;;;5059206;28;20060;-85
2021/05/24 07:33:22;;;;;;;3.35;0.50;;;15.80;61.20;;;;;;5058123;28;20032;-84
2021/05/24 07:35:48;;;;;;;1.70;0.60;;;15.90;60.50;;;;;;5064504;28;20547;-83
2021/05/24 07:38:14;;;;;;;3.55;0.57;;;16.00;60.20;;;;;;5051957;28;20036;-83
2021/05/24 07:40:40;;;;;;;2.03;0.50;;;16.00;60.30;;;;;;5050120;28;20056;-84
2021/05/24 07:43:06;;;;;;;1.80;0.45;;;16.10;59.90;;;;;;5077572;28;20020;-84
2021/05/24 07:45:32;;;;;;;1.77;0.40;;;16.20;60.30;;;;;;5093749;28;20107;-83
2021/05/24 07:47:57;;;;;;;1.88;0.60;;;16.20;60.60;;;;;;5085015;28;20036;-82
2021/05/24 07:50:24;;;;;;;3.03;0.68;;;16.20;60.40;;;;;;5081683;28;20031;-81
2021/05/24 07:52:50;;;;;;;2.85;0.60;;;16.20;60.30;;;;;;5081953;28;20127;-82
2021/05/24 07:55:16;;;;;;;2.75;0.93;;;16.20;59.80;;;;;;5072533;28;20484;-81
2021/05/24 07:57:42;;;;;;;5.95;1.20;;;16.20;59.80;;;;;;5072494;28;20024;-81
2021/05/24 08:00:10;;;;;;;2.80;0.70;;;16.20;60.30;;;;;;5080011;28;20103;-82
2021/05/24 08:02:40;;;;;;;2.80;0.60;;;16.20;59.80;;;;;;5087161;28;20067;-81
2021/05/24 08:05:08;;;;;;;4.20;0.80;;;16.10;60.30;;;;;;5079479;28;20024;-82
2021/05/24 08:07:34;;;;;;;6.43;1.80;;;16.10;60.30;;;;;;5092007;28;20020;-82
2021/05/24 08:09:59;;;;;;;3.75;0.90;;;16.10;60.80;;;;;;5074174;28;20033;-82
2021/05/24 08:12:25;;;;;;;6.05;0.85;;;16.00;61.30;;;;;;5073108;28;20043;-81
2021/05/24 08:14:51;;;;;;;2.10;0.73;;;15.90;60.30;;;;;;5073167;28;20055;-81
2021/05/24 08:17:17;;;;;;;3.10;0.43;;;15.80;61.00;;;;;;5073289;28;20024;-81
2021/05/24 08:19:42;;;;;;;3.50;0.35;;;15.70;60.40;;;;;;5072164;28;20070;-81
2021/05/24 08:22:08;;;;;;;1.83;0.50;;;15.60;61.50;;;;;;5072993;28;20389;-82
2021/05/24 08:24:34;;;;;;;4.50;0.70;;;15.50;62.30;;;;;;5071614;28;20040;-82
2021/05/24 08:26:59;;;;;;;2.20;0.50;;;15.40;62.30;;;;;;5073461;28;20071;-83
2021/05/24 08:29:25;;;;;;;2.47;0.52;;;15.40;63.30;;;;;;5052231;28;20040;-82
2021/05/24 08:31:50;;;;;;;2.03;0.80;;;15.40;64.00;;;;;;5055875;28;20040;-82
2021/05/24 08:34:16;;;;;;;3.47;0.50;;;15.40;63.50;;;;;;5071963;28;20051;-82
2021/05/24 08:36:43;;;;;;;2.38;0.47;;;15.30;63.80;;;;;;5071744;28;20062;-82
2021/05/24 08:39:09;;;;;;;3.95;0.60;;;15.40;63.90;;;;;;5070290;28;20033;-82
2021/05/24 08:41:35;;;;;;;3.58;0.60;;;15.40;63.80;;;;;;5073444;28;20025;-83
2021/05/24 08:44:02;;;;;;;1.27;0.43;;;15.40;64.30;;;;;;5088149;28;20083;-85
2021/05/24 08:46:27;;;;;;;3.97;0.70;;;15.30;64.90;;;;;;5076554;28;20115;-83
2021/05/24 08:48:53;;;;;;;4.85;0.50;;;15.30;64.20;;;;;;5073622;28;20127;-87
2021/05/24 08:51:20;;;;;;;2.67;0.50;;;15.30;64.50;;;;;;5070509;28;20062;-80
2021/05/24 08:53:45;;;;;;;2.63;0.60;;;15.20;64.60;;;;;;5064873;28;20028;-83
2021/05/24 08:56:11;;;;;;;3.47;0.50;;;15.30;65.90;;;;;;5067325;28;20023;-84
2021/05/24 08:58:38;;;;;;;6.85;1.20;;;15.20;64.90;;;;;;5060278;28;20468;-83
2021/05/24 09:01:04;;;;;;;2.17;0.68;;;15.20;65.20;;;;;;5085152;28;20054;-83
2021/05/24 09:03:32;;;;;;;2.55;0.70;;;15.20;66.10;;;;;;5075345;28;20101;-82
2021/05/24 09:06:00;;;;;;;3.58;0.57;;;15.20;65.40;;;;;;5075844;28;20455;-82
2021/05/24 09:08:34;;;;;;;2.28;0.60;;;15.20;65.90;;;;;;5077190;28;20036;-82
2021/05/24 09:11:00;;;;;;;3.30;0.63;;;15.20;65.90;;;;;;5076761;28;20060;-82
2021/05/24 09:13:30;;;;;;;3.03;0.45;;;15.00;65.60;;;;;;5075170;28;20436;-83
2021/05/24 09:15:56;;;;;;;1.80;0.57;;;14.90;67.00;;;;;;5056836;28;20021;-83
2021/05/24 09:18:23;;;;;;;2.55;0.50;;;14.80;67.60;;;;;;5064647;28;20043;-83
2021/05/24 09:20:50;;;;;;;4.20;0.82;;;14.80;68.20;;;;;;5097100;28;20020;-84
2021/05/24 09:23:28;;;;;;;3.28;0.60;;;14.70;69.10;;;;;;5077585;28;20032;-83
2021/05/24 09:26:07;;;;;;;1.20;0.53;;;14.80;69.80;;;;;;5075410;28;20515;-84
2021/05/24 09:28:42;;;;;;;2.55;0.50;;;14.90;70.20;;;;;;5055432;28;20029;-84
2021/05/24 09:31:17;;;;;;;3.55;1.17;;;15.00;70.60;;;;;;5055167;28;20025;-84
2021/05/24 09:33:46;;;;;;;3.08;0.68;;;15.10;69.80;;;;;;5056266;28;20029;-84
2021/05/24 09:36:13;;;;;;;6.45;0.50;;;15.20;70.50;;;;;;5056946;28;20025;-84
2021/05/24 09:38:49;;;;;;;0.55;0.32;;;15.40;70.70;;;;;;5095523;28;20028;-84
2021/05/24 09:41:17;;;;;;;2.95;0.50;;;15.50;70.90;;;;;;5095645;28;20035;-84
2021/05/24 09:43:54;;;;;;;3.20;0.80;;;15.60;70.90;;;;;;5096955;28;20380;-84
2021/05/24 09:46:22;;;;;;;1.65;0.40;;;15.70;69.20;;;;;;5096843;28;20077;-84
2021/05/24 09:48:56;;;;;;;1.35;0.60;;;15.80;69.70;;;;;;5091522;28;20047;-84
2021/05/24 09:51:27;;;;;;;1.85;0.70;;;15.80;68.90;;;;;;5075298;28;20085;-84
2021/05/24 09:54:05;;;;;;;2.78;0.60;;;15.90;68.80;;;;;;5087865;28;20387;-84
2021/05/24 09:56:39;;;;;;;1.40;0.60;;;16.00;69.50;;;;;;5089161;28;20025;-85
2021/05/24 09:59:10;;;;;;;3.20;0.47;;;16.00;70.10;;;;;;5076286;28;20029;-85
2021/05/24 10:01:40;;;;;;;3.03;0.60;;;16.10;70.30;;;;;;5082564;28;20073;-84
2021/05/24 10:04:07;;;;;;;2.13;0.47;;;16.10;70.00;;;;;;5089732;28;20020;-84
2021/05/24 10:06:34;;;;;;;4.80;0.60;;;16.10;70.70;;;;;;5076155;28;20554;-84
2021/05/24 10:09:00;;;;;;;3.13;0.60;;;16.10;70.50;;;;;;5058076;28;20115;-84
2021/05/24 10:11:29;;;;;;;1.90;0.50;;;16.10;70.90;;;;;;5075249;28;20051;-84
2021/05/24 10:13:55;;;;;;;5.32;0.63;;;16.20;71.50;;;;;;5074612;28;20623;-84
2021/05/24 10:16:21;;;;;;;1.17;0.60;;;16.20;71.20;;;;;;5075831;28;20082;-84
2021/05/24 10:18:47;;;;;;;2.70;0.40;;;16.10;71.00;;;;;;5075981;28;20020;-84
2021/05/24 10:21:13;;;;;;;2.35;0.60;;;16.10;71.50;;;;;;5074497;28;20442;-84
2021/05/24 10:23:39;;;;;;;3.70;0.80;;;16.10;72.80;;;;;;5057880;28;20404;-84
2021/05/24 10:26:08;;;;;;;2.40;0.63;;;16.10;72.50;;;;;;5074304;28;20041;-85
2021/05/24 10:28:34;;;;;;;3.90;0.70;;;16.10;74.00;;;;;;5088381;28;20484;-85
2021/05/24 10:31:01;;;;;;;2.97;0.80;;;16.10;74.20;;;;;;5095368;28;20032;-85
2021/05/24 10:33:43;;;;;;;6.85;0.70;;;16.10;74.70;;;;;;5094270;28;20035;-83
2021/05/24 10:36:36;;;;;;;2.10;0.70;;;16.10;74.50;;;;;;5089998;28;20493;-84
2021/05/24 10:39:01;;;;;;;2.17;0.52;;;16.10;74.70;;;;;;5073556;28;20036;-84
2021/05/24 10:41:42;;;;;;;5.82;0.70;;;16.10;75.50;;;;;;5086906;28;20385;-84
2021/05/24 10:44:10;;;;;;;2.28;0.50;;;16.00;75.40;;;;;;5095960;28;20079;-84
2021/05/24 10:46:36;;;;;;;4.47;0.70;;;16.00;76.30;;;;;;5083045;28;20546;-85
2021/05/24 10:49:19;;;;;;;4.00;0.60;;;15.90;77.00;;;;;;5086798;28;20028;-85
2021/05/24 10:51:48;;;;;;;1.23;0.50;;;15.90;77.70;;;;;;5078365;28;20465;-85
2021/05/24 10:54:28;;;;;;;1.92;0.65;;;15.80;77.30;;;;;;5074791;28;20086;-85
2021/05/24 10:57:00;;;;;;;3.53;0.50;;;15.90;77.90;;;;;;5087896;28;20036;-84
2021/05/24 10:59:40;;;;;;;4.25;0.60;;;15.90;77.70;;;;;;5064193;28;20103;-84
2021/05/24 11:02:10;;;;;;;4.03;0.77;;;15.90;77.70;;;;;;5088064;28;20021;-85
2021/05/24 11:04:56;;;;;;;2.03;0.80;;;15.90;78.30;;;;;;5087880;28;20020;-86
2021/05/24 11:07:22;;;;;;;2.53;0.60;;;16.00;79.20;;;;;;5084190;28;20082;-84
2021/05/24 11:09:48;;;;;;;5.35;0.75;;;16.00;78.90;;;;;;5083231;28;20029;-83
2021/05/24 11:12:13;;;;;;;3.15;0.75;;;16.10;78.60;;;;;;5082313;28;20102;-83
2021/05/24 11:15:18;;;;;;;2.63;0.80;;;16.10;78.10;;;;;;5076212;28;20043;-83
2021/05/24 11:17:59;;;;;;;1.85;0.65;;;16.20;77.50;;;;;;5074823;28;20395;-83
2021/05/24 11:20:51;;;;;;;2.88;0.73;;;16.20;78.20;;;;;;5083004;28;20025;-83
2021/05/24 11:26:12;;;;;;;3.08;0.60;;;16.30;78.20;;;;;;5054887;28;20100;-83
2021/05/24 11:28:43;;;;;;;1.73;0.50;;;16.40;77.80;;;;;;5053237;28;20025;-83
2021/05/24 11:31:32;;;;;;;2.65;0.70;;;16.30;77.80;;;;;;5053136;28;20040;-83
2021/05/24 11:33:59;;;;;;;3.83;0.40;;;16.30;78.30;;;;;;5059320;28;20397;-82
2021/05/24 11:36:37;;;;;;;2.25;0.65;;;16.30;78.30;;;;;;5053056;28;20112;-83
2021/05/24 11:39:12;;;;;;;3.63;0.80;;;16.20;77.40;;;;;;5059309;28;20023;-83
2021/05/24 11:41:58;;;;;;;1.50;0.57;;;16.20;78.00;;;;;;5074147;28;20373;-82
2021/05/24 11:44:37;;;;;;;3.15;0.43;;;16.20;77.90;;;;;;5073991;28;20035;-82
2021/05/24 11:47:09;;;;;;;0.95;0.43;;;16.10;79.00;;;;;;5073667;28;20029;-84
2021/05/24 11:49:41;;;;;;;1.00;0.40;;;16.20;78.30;;;;;;5105861;27;20391;-83
2021/05/24 11:52:09;;;;;;;1.63;0.32;;;16.20;78.50;;;;;;5080315;28;20024;-83
2021/05/24 11:54:35;;;;;;;0.73;0.30;;;16.30;78.30;;;;;;5081159;28;20025;-83
2021/05/24 11:57:05;;;;;;;1.35;0.40;;;16.40;78.60;;;;;;5079446;28;20488;-83
2021/05/24 11:59:32;;;;;;;0.35;0.20;;;16.50;77.40;;;;;;5059913;28;20035;-85
2021/05/24 12:01:59;;;;;;;0.60;0.35;;;16.50;76.10;;;;;;5081379;28;20021;-84
2021/05/24 12:04:31;;;;;;;2.92;0.30;;;16.50;76.30;;;;;;5063086;28;20056;-83
2021/05/24 12:07:01;;;;;;;0.63;0.40;;;16.60;77.10;;;;;;5075642;28;20031;-83
2021/05/24 12:09:53;;;;;;;0.20;0.20;;;16.70;75.10;;;;;;5079632;28;20034;-84
2021/05/24 12:12:27;;;;;;;0.88;0.30;;;16.70;74.90;;;;;;5075835;28;20025;-83
2021/05/24 12:14:55;;;;;;;0.75;0.30;;;16.70;76.00;;;;;;5078311;28;20025;-84
2021/05/24 12:17:27;;;;;;;0.90;0.40;;;16.80;74.20;;;;;;5084679;28;20101;-83
2021/05/24 12:19:54;;;;;;;0.40;0.20;;;16.90;74.30;;;;;;5088028;28;20020;-84
2021/05/24 12:22:26;;;;;;;0.60;0.22;;;17.00;71.10;;;;;;5063305;28;20500;-83
2021/05/24 12:24:53;;;;;;;0.73;0.28;;;16.90;71.50;;;;;;5088751;28;20032;-84
2021/05/24 12:27:21;;;;;;;1.50;0.20;;;16.80;72.60;;;;;;5084554;28;20025;-82
2021/05/24 12:29:50;;;;;;;0.67;0.27;;;16.70;71.40;;;;;;5073374;28;20029;-82
2021/05/24 12:32:30;;;;;;;0.70;0.20;;;16.50;72.20;;;;;;5086104;28;20108;-82
2021/05/24 12:34:56;;;;;;;0.77;0.20;;;16.30;73.30;;;;;;5080526;28;20024;-83
2021/05/24 12:37:23;;;;;;;1.00;0.30;;;16.20;74.30;;;;;;5082095;28;20436;-83
2021/05/24 12:39:49;;;;;;;0.93;0.25;;;16.00;75.00;;;;;;5071909;28;20063;-84
2021/05/24 12:42:16;;;;;;;3.70;0.50;;;15.90;76.40;;;;;;5071861;28;20029;-83
2021/05/24 12:44:43;;;;;;;1.45;0.40;;;15.70;78.20;;;;;;5081771;28;20048;-83
2021/05/24 12:47:18;;;;;;;4.13;0.70;;;15.50;79.20;;;;;;5064779;28;20050;-83
2021/05/24 12:49:47;;;;;;;2.15;0.45;;;15.30;80.40;;;;;;5080444;28;20027;-82
2021/05/24 12:52:14;;;;;;;4.72;0.63;;;15.10;81.30;;;;;;5085185;28;20016;-83
2021/05/24 12:54:51;;;;;;;0.77;0.50;;;15.00;82.30;;;;;;5056755;28;20064;-84